Time;durP1;ratioP1;P1;durP2;ratioP2;P2;SDS_P1;SDS_P2;PMS_P1;PMS_P2;Temp;Humidity;BMP_temperature;BMP_pressure;BME280_temperature;BME280_humidity;BME280_pressure;Samples;Min_cycle;Max_cycle;Signal;HPM_P1;HPM_P2
2023/03/25 00:02:06;;;;;;;5.97;1.13;;;;;10.20;97749.00;;;;5013641;28;20038;-61
2023/03/25 00:04:34;;;;;;;4.50;1.35;;;;;10.10;97748.00;;;;5013437;28;20050;-57
2023/03/25 00:07:01;;;;;;;6.82;1.17;;;;;10.10;97757.00;;;;5016544;28;20129;-63
2023/03/25 00:09:28;;;;;;;1.98;1.10;;;;;10.10;97773.00;;;;5014553;28;20511;-60
2023/03/25 00:11:54;;;;;;;2.80;1.05;;;;;10.10;97777.00;;;;5028703;28;20049;-60
2023/03/25 00:14:21;;;;;;;3.20;1.17;;;;;10.00;97771.00;;;;5014156;28;20492;-61
2023/03/25 00:16:51;;;;;;;4.75;1.67;;;;;10.00;97776.00;;;;5016577;28;20089;-61
2023/03/25 00:19:20;;;;;;;3.42;1.05;;;;;10.00;97766.00;;;;5013236;28;20125;-57
2023/03/25 00:21:49;;;;;;;8.75;1.75;;;;;10.00;97774.00;;;;5014313;28;20048;-62
2023/03/25 00:24:16;;;;;;;2.63;0.95;;;;;10.00;97757.00;;;;5013548;28;20054;-59
2023/03/25 00:26:44;;;;;;;2.00;0.88;;;;;10.10;97750.00;;;;5011997;28;20124;-59
2023/03/25 00:29:12;;;;;;;5.15;1.08;;;;;10.10;97740.00;;;;5014122;28;20406;-62
2023/03/25 00:31:39;;;;;;;5.90;1.15;;;;;10.10;97743.00;;;;5013107;28;20069;-57
2023/03/25 00:34:07;;;;;;;2.50;0.93;;;;;10.10;97748.00;;;;5013317;28;20459;-61
2023/03/25 00:36:37;;;;;;;6.45;1.10;;;;;10.10;97750.00;;;;5012744;28;20052;-58
2023/03/25 00:39:04;;;;;;;3.80;1.08;;;;;10.20;97750.00;;;;5011667;28;20122;-60
2023/03/25 00:41:31;;;;;;;4.13;1.20;;;;;10.20;97756.00;;;;5012893;28;20038;-56
2023/03/25 00:43:59;;;;;;;4.10;1.10;;;;;10.20;97748.00;;;;5014290;28;20093;-57
2023/03/25 00:46:29;;;;;;;5.20;1.10;;;;;10.20;97748.00;;;;5011679;28;20383;-57
2023/03/25 00:48:57;;;;;;;1.58;0.85;;;;;10.20;97750.00;;;;5012025;28;20046;-59
2023/03/25 00:51:25;;;;;;;6.10;1.38;;;;;10.20;97753.00;;;;5011518;28;20054;-59
2023/03/25 00:53:54;;;;;;;6.63;1.20;;;;;10.20;97761.00;;;;5011880;28;20100;-62
2023/03/25 00:56:22;;;;;;;3.42;1.15;;;;;10.20;97766.00;;;;5014423;28;20383;-59
2023/03/25 00:58:49;;;;;;;5.10;0.85;;;;;10.20;97778.00;;;;4994351;28;20050;-59
2023/03/25 01:01:30;;;;;;;1.63;0.70;;;;;10.10;97762.00;;;;5012895;28;20042;-58
2023/03/25 01:03:58;;;;;;;1.80;0.80;;;;;10.00;97786.00;;;;5014002;28;20049;-61
2023/03/25 01:06:31;;;;;;;2.45;0.93;;;;;9.90;97784.00;;;;5014400;28;20447;-62
2023/03/25 01:08:59;;;;;;;2.20;0.95;;;;;9.80;97795.00;;;;5013970;28;20056;-59
2023/03/25 01:11:29;;;;;;;3.17;0.80;;;;;9.70;97794.00;;;;5012404;28;20046;-59
2023/03/25 01:13:58;;;;;;;3.42;0.88;;;;;9.60;97803.00;;;;5012391;28;20046;-60
2023/03/25 01:16:26;;;;;;;0.93;0.63;;;;;9.50;97795.00;;;;5012715;28;20053;-61
2023/03/25 01:18:54;;;;;;;1.08;0.60;;;;;9.40;97775.00;;;;5012953;28;20057;-60
2023/03/25 01:21:23;;;;;;;1.75;0.60;;;;;9.20;97785.00;;;;5027570;28;20045;-58
2023/03/25 01:23:50;;;;;;;2.50;0.70;;;;;9.10;97766.00;;;;5012897;28;20052;-61
2023/03/25 01:26:17;;;;;;;0.90;0.40;;;;;9.20;97754.00;;;;5015829;28;20580;-58
2023/03/25 01:28:44;;;;;;;2.17;0.68;;;;;9.20;97755.00;;;;5011491;28;20554;-59
2023/03/25 01:31:13;;;;;;;0.93;0.70;;;;;9.20;97759.00;;;;5013801;28;20076;-60
2023/03/25 01:33:39;;;;;;;1.45;1.15;;;;;9.30;97760.00;;;;5028111;28;20034;-58
2023/03/25 01:36:11;;;;;;;1.58;0.70;;;;;9.30;97760.00;;;;5013796;28;20410;-62
2023/03/25 01:38:39;;;;;;;2.70;1.02;;;;;9.20;97758.00;;;;5014507;28;20455;-61
2023/03/25 01:41:07;;;;;;;3.10;0.85;;;;;9.20;97762.00;;;;5011382;28;20050;-62
2023/03/25 01:43:34;;;;;;;2.80;1.00;;;;;9.20;97762.00;;;;5013065;28;20054;-61
2023/03/25 01:46:01;;;;;;;2.47;0.60;;;;;9.20;97762.00;;;;5013835;28;20062;-63
2023/03/25 01:48:35;;;;;;;0.63;0.55;;;;;9.20;97754.00;;;;5011752;28;20498;-58
2023/03/25 01:51:09;;;;;;;;;;;;;9.20;97757.00;;;;5011186;28;20052;-57
2023/03/25 01:53:36;;;;;;;2.75;1.05;;;;;9.20;97754.00;;;;5027868;28;19928;-57
2023/03/25 01:56:05;;;;;;;1.75;0.52;;;;;9.10;97748.00;;;;5014370;28;20052;-56
2023/03/25 01:58:34;;;;;;;1.13;0.52;;;;;9.10;97749.00;;;;5013613;28;20056;-61
2023/03/25 02:01:02;;;;;;;2.97;0.70;;;;;9.00;97747.00;;;;5015168;28;20064;-58
2023/03/25 02:03:35;;;;;;;1.88;0.90;;;;;9.00;97746.00;;;;5014315;28;20099;-57
2023/03/25 02:06:15;;;;;;;1.38;0.60;;;;;9.00;97754.00;;;;5014321;28;20079;-58
2023/03/25 02:08:42;;;;;;;1.50;0.80;;;;;8.90;97766.00;;;;5017103;28;20054;-60
2023/03/25 02:11:09;;;;;;;0.90;0.47;;;;;8.80;97749.00;;;;5015340;28;20045;-59
2023/03/25 02:13:40;;;;;;;1.65;0.50;;;;;8.80;97740.00;;;;5015534;28;20053;-57
2023/03/25 02:16:25;;;;;;;2.65;0.70;;;;;8.90;97742.00;;;;5014070;28;20049;-58
2023/03/25 02:19:16;;;;;;;1.30;0.60;;;;;8.80;97742.00;;;;5014678;28;20448;-57
2023/03/25 02:21:49;;;;;;;2.38;1.02;;;;;8.80;97735.00;;;;5015199;28;20100;-59
2023/03/25 02:24:45;;;;;;;1.48;0.80;;;;;8.90;97739.00;;;;5015109;28;20053;-58
2023/03/25 02:27:27;;;;;;;0.90;0.52;;;;;8.90;97745.00;;;;4988926;28;20058;-57
2023/03/25 02:30:30;;;;;;;3.88;0.80;;;;;8.90;97746.00;;;;5013376;28;20510;-58
2023/03/25 02:33:24;;;;;;;1.38;0.85;;;;;8.90;97728.00;;;;5013723;28;20084;-59
2023/03/25 02:36:15;;;;;;;3.15;0.90;;;;;8.90;97744.00;;;;5013568;28;20037;-63
2023/03/25 02:38:48;;;;;;;3.67;1.08;;;;;8.80;97748.00;;;;5013091;28;20149;-59
2023/03/25 02:41:38;;;;;;;1.40;0.95;;;;;8.90;97747.00;;;;5014810;28;20325;-59
2023/03/25 02:44:08;;;;;;;2.60;0.80;;;;;8.80;97733.00;;;;5030099;28;20064;-62
2023/03/25 02:46:36;;;;;;;2.15;1.20;;;;;8.80;97737.00;;;;5013788;28;20050;-59
2023/03/25 02:49:14;;;;;;;1.05;0.70;;;;;8.80;97739.00;;;;5014154;28;20037;-59
2023/03/25 02:51:48;;;;;;;1.67;0.82;;;;;8.80;97725.00;;;;5015224;28;20455;-60
2023/03/25 02:54:17;;;;;;;1.90;0.80;;;;;8.80;97716.00;;;;5013470;28;20391;-60
2023/03/25 02:56:47;;;;;;;2.28;0.88;;;;;8.80;97722.00;;;;5013168;28;20033;-61
2023/03/25 02:59:17;;;;;;;2.78;0.93;;;;;8.80;97724.00;;;;5013876;28;20042;-59
2023/03/25 03:01:44;;;;;;;2.97;1.00;;;;;8.80;97716.00;;;;5013163;28;20054;-60
2023/03/25 03:04:11;;;;;;;4.30;1.20;;;;;8.80;97708.00;;;;5014511;28;20053;-59
2023/03/25 03:06:41;;;;;;;1.75;1.00;;;;;8.80;97708.00;;;;5011839;28;20053;-60
2023/03/25 03:09:31;;;;;;;3.95;1.08;;;;;8.80;97702.00;;;;5012574;28;20069;-62
2023/03/25 03:12:15;;;;;;;2.03;0.85;;;;;8.70;97700.00;;;;5014269;28;20045;-58
2023/03/25 03:15:06;;;;;;;3.45;1.05;;;;;8.70;97700.00;;;;5013134;28;20046;-58
2023/03/25 03:17:49;;;;;;;2.13;0.90;;;;;8.70;97702.00;;;;5012833;28;20050;-58
2023/03/25 03:20:25;;;;;;;2.80;0.80;;;;;8.60;97700.00;;;;5013637;28;20034;-58
2023/03/25 03:23:12;;;;;;;2.20;0.95;;;;;8.70;97695.00;;;;5013012;28;20047;-56
2023/03/25 03:25:58;;;;;;;4.30;0.80;;;;;8.70;97703.00;;;;5014020;28;20042;-61
2023/03/25 03:28:34;;;;;;;2.20;0.70;;;;;8.70;97695.00;;;;5013682;28;20108;-59
2023/03/25 03:31:11;;;;;;;2.38;1.20;;;;;8.70;97719.00;;;;5013840;28;20050;-60
2023/03/25 03:33:49;;;;;;;4.75;1.30;;;;;8.70;97704.00;;;;5013781;28;20115;-57
2023/03/25 03:36:20;;;;;;;1.02;0.70;;;;;8.70;97716.00;;;;5012634;28;20042;-58
2023/03/25 03:38:55;;;;;;;4.13;1.00;;;;;8.80;97712.00;;;;5013118;28;20061;-58
2023/03/25 03:41:25;;;;;;;2.78;1.02;;;;;8.80;97710.00;;;;5012434;28;20414;-59
2023/03/25 03:44:13;;;;;;;2.53;0.93;;;;;8.80;97709.00;;;;5014432;28;20049;-57
2023/03/25 03:47:04;;;;;;;2.83;1.20;;;;;8.80;97719.00;;;;5012656;28;20479;-58
2023/03/25 03:49:42;;;;;;;3.25;1.05;;;;;8.80;97729.00;;;;5013032;28;20667;-58
2023/03/25 03:52:15;;;;;;;5.25;1.40;;;;;8.80;97725.00;;;;5013617;28;20057;-58
2023/03/25 03:54:55;;;;;;;3.13;1.48;;;;;8.80;97719.00;;;;5012176;28;20104;-57
2023/03/25 03:57:29;;;;;;;3.67;1.38;;;;;8.70;97722.00;;;;5013403;28;20398;-59
2023/03/25 04:00:25;;;;;;;3.92;1.27;;;;;8.80;97728.00;;;;5028051;28;20446;-57
2023/03/25 04:03:00;;;;;;;5.55;1.33;;;;;8.80;97735.00;;;;5013162;28;20515;-63
2023/03/25 04:05:29;;;;;;;3.42;1.38;;;;;8.70;97736.00;;;;5013296;28;20041;-58
2023/03/25 04:08:03;;;;;;;4.05;1.35;;;;;8.80;97727.00;;;;5013201;28;20395;-60
2023/03/25 04:10:38;;;;;;;4.68;1.52;;;;;8.80;97733.00;;;;5012545;28;20053;-57
2023/03/25 04:13:12;;;;;;;3.63;1.30;;;;;8.80;97736.00;;;;5013150;28;20564;-59
2023/03/25 04:15:40;;;;;;;7.43;1.42;;;;;8.70;97743.00;;;;5013191;28;20129;-57
2023/03/25 04:18:07;;;;;;;3.05;0.90;;;;;8.70;97743.00;;;;5011477;28;20058;-58
2023/03/25 04:20:35;;;;;;;3.53;1.25;;;;;8.80;97743.00;;;;5012472;28;20499;-58
2023/03/25 04:23:08;;;;;;;5.72;1.60;;;;;8.70;97750.00;;;;5013147;28;20096;-57
2023/03/25 04:25:35;;;;;;;2.58;0.93;;;;;8.70;97745.00;;;;5012059;28;20454;-57
2023/03/25 04:28:01;;;;;;;3.70;1.10;;;;;8.70;97751.00;;;;5012786;28;20050;-62
2023/03/25 04:30:28;;;;;;;5.43;1.90;;;;;8.70;97761.00;;;;5012474;28;20038;-57
2023/03/25 04:32:55;;;;;;;4.13;1.15;;;;;8.80;97750.00;;;;5011707;28;20038;-58
2023/03/25 04:35:24;;;;;;;6.50;1.17;;;;;8.80;97754.00;;;;5012762;28;20046;-60
2023/03/25 04:37:56;;;;;;;4.32;1.23;;;;;8.80;97746.00;;;;5011529;28;20058;-59
2023/03/25 04:40:24;;;;;;;1.85;0.80;;;;;8.80;97751.00;;;;5010874;28;20052;-58
2023/03/25 04:42:52;;;;;;;3.55;1.20;;;;;8.80;97758.00;;;;5012727;28;20042;-58
2023/03/25 04:45:19;;;;;;;2.22;0.93;;;;;8.80;97754.00;;;;5012854;28;20056;-60
2023/03/25 04:47:47;;;;;;;3.00;0.98;;;;;8.80;97745.00;;;;5012586;28;20037;-61
2023/03/25 04:50:24;;;;;;;3.95;1.38;;;;;8.90;97755.00;;;;5012096;28;20056;-60
2023/03/25 04:52:51;;;;;;;2.92;1.27;;;;;8.80;97755.00;;;;5012519;28;20056;-60
2023/03/25 04:55:20;;;;;;;4.95;1.00;;;;;8.90;97753.00;;;;5012551;28;20048;-60
2023/03/25 04:57:51;;;;;;;5.15;1.38;;;;;8.80;97750.00;;;;5012595;28;20046;-61
2023/03/25 05:00:23;;;;;;;5.93;1.10;;;;;8.90;97756.00;;;;5012813;28;20046;-60
2023/03/25 05:02:54;;;;;;;4.90;1.38;;;;;8.80;97771.00;;;;5013287;28;20495;-61
2023/03/25 05:05:23;;;;;;;8.15;1.67;;;;;8.80;97749.00;;;;5013419;28;20411;-61
2023/03/25 05:07:53;;;;;;;6.93;1.67;;;;;8.80;97759.00;;;;5012256;28;20108;-61
2023/03/25 05:10:22;;;;;;;5.28;1.60;;;;;8.80;97753.00;;;;5013003;28;20545;-61
2023/03/25 05:12:49;;;;;;;5.07;1.67;;;;;8.80;97762.00;;;;5013622;28;20060;-62
2023/03/25 05:15:16;;;;;;;6.78;1.60;;;;;8.80;97753.00;;;;5012442;28;20041;-59
2023/03/25 05:17:43;;;;;;;8.32;1.83;;;;;8.80;97756.00;;;;5012041;28;20108;-58
2023/03/25 05:20:10;;;;;;;5.50;1.85;;;;;8.80;97743.00;;;;5010378;28;20049;-61
2023/03/25 05:22:37;;;;;;;11.38;2.00;;;;;8.80;97751.00;;;;5012427;28;20046;-56
2023/03/25 05:25:06;;;;;;;10.93;2.22;;;;;8.80;97752.00;;;;5010942;28;20078;-62
2023/03/25 05:27:34;;;;;;;8.85;2.10;;;;;8.80;97757.00;;;;5012381;28;20122;-60
2023/03/25 05:30:01;;;;;;;7.80;2.22;;;;;8.80;97766.00;;;;5014887;28;20045;-60
2023/03/25 05:32:34;;;;;;;8.73;2.05;;;;;8.80;97766.00;;;;5014759;28;20049;-60
2023/03/25 05:35:02;;;;;;;7.25;1.60;;;;;8.80;97775.00;;;;5016709;28;20473;-60
2023/03/25 05:37:29;;;;;;;9.63;2.72;;;;;8.90;97785.00;;;;5016470;28;20042;-60
2023/03/25 05:39:56;;;;;;;10.85;2.67;;;;;8.90;97792.00;;;;5015529;28;20050;-60
2023/03/25 05:42:24;;;;;;;10.98;2.30;;;;;8.90;97783.00;;;;5016014;28;20517;-59
2023/03/25 05:44:52;;;;;;;9.13;2.17;;;;;8.90;97779.00;;;;5015993;28;20115;-60
2023/03/25 05:47:23;;;;;;;7.35;2.08;;;;;8.90;97771.00;;;;5014678;28;20069;-60
2023/03/25 05:49:51;;;;;;;8.20;2.05;;;;;8.90;97790.00;;;;5014095;28;20049;-60
2023/03/25 05:52:23;;;;;;;7.07;2.38;;;;;9.00;97798.00;;;;5015940;28;20491;-60
2023/03/25 05:54:50;;;;;;;8.60;1.65;;;;;9.00;97791.00;;;;5015999;28;20411;-60
2023/03/25 05:57:17;;;;;;;9.02;1.98;;;;;9.00;97791.00;;;;5014787;28;20038;-60
2023/03/25 05:59:45;;;;;;;8.15;2.35;;;;;9.00;97793.00;;;;5016969;28;20046;-61
2023/03/25 06:02:14;;;;;;;6.13;2.55;;;;;9.00;97802.00;;;;5019409;28;20048;-61
2023/03/25 06:04:41;;;;;;;9.43;2.05;;;;;9.10;97811.00;;;;5018532;28;20526;-60
2023/03/25 06:07:13;;;;;;;9.57;1.95;;;;;9.10;97808.00;;;;5020487;28;20042;-60
2023/03/25 06:09:45;;;;;;;10.95;2.17;;;;;9.20;97810.00;;;;5033690;28;20046;-60
2023/03/25 06:12:18;;;;;;;12.00;2.30;;;;;9.20;97819.00;;;;5014793;28;20518;-59
2023/03/25 06:14:46;;;;;;;7.50;2.08;;;;;9.20;97809.00;;;;5015735;28;20056;-60
2023/03/25 06:17:17;;;;;;;13.00;2.13;;;;;9.30;97814.00;;;;5015387;28;20080;-60
2023/03/25 06:19:44;;;;;;;6.15;1.95;;;;;9.30;97804.00;;;;5014950;28;20042;-60
2023/03/25 06:22:11;;;;;;;12.63;2.10;;;;;9.40;97801.00;;;;5015469;28;20042;-59
2023/03/25 06:24:38;;;;;;;7.45;1.88;;;;;9.40;97800.00;;;;5014057;28;20050;-59
2023/03/25 06:27:07;;;;;;;10.98;2.40;;;;;9.50;97792.00;;;;5015558;28;20550;-59
2023/03/25 06:29:36;;;;;;;11.75;1.95;;;;;9.50;97786.00;;;;5013382;28;20041;-59
2023/03/25 06:32:04;;;;;;;12.30;2.03;;;;;9.50;97795.00;;;;5015224;28;20052;-58
2023/03/25 06:34:33;;;;;;;7.30;1.80;;;;;9.50;97790.00;;;;5015543;28;20048;-59
2023/03/25 06:37:00;;;;;;;11.05;2.40;;;;;9.60;97790.00;;;;5014795;28;20038;-59
2023/03/25 06:39:30;;;;;;;8.32;1.80;;;;;9.60;97790.00;;;;5013268;28;20045;-62
2023/03/25 06:41:59;;;;;;;8.35;2.45;;;;;9.70;97800.00;;;;5014897;28;20053;-59
2023/03/25 06:44:35;;;;;;;8.68;1.85;;;;;9.70;97785.00;;;;5013970;28;20050;-60
2023/03/25 06:47:23;;;;;;;9.85;2.90;;;;;9.90;97790.00;;;;5013729;28;20054;-59
2023/03/25 06:49:50;;;;;;;9.90;2.25;;;;;10.00;97785.00;;;;5012916;28;20474;-59
2023/03/25 06:52:16;;;;;;;7.68;1.88;;;;;10.00;97787.00;;;;5014910;28;20395;-59
2023/03/25 06:54:43;;;;;;;11.10;2.13;;;;;10.00;97791.00;;;;5015008;28;20100;-60
2023/03/25 06:57:09;;;;;;;10.88;2.03;;;;;10.10;97786.00;;;;5013612;28;20542;-61
2023/03/25 06:59:36;;;;;;;13.20;2.03;;;;;10.10;97785.00;;;;5013276;28;20041;-59
2023/03/25 07:02:03;;;;;;;8.95;1.70;;;;;10.20;97776.00;;;;5014658;28;20077;-59
2023/03/25 07:04:29;;;;;;;10.32;2.58;;;;;10.20;97756.00;;;;5015003;28;20100;-60
2023/03/25 07:06:56;;;;;;;14.25;3.15;;;;;10.30;97760.00;;;;5014922;28;20227;-60
2023/03/25 07:09:23;;;;;;;7.80;1.98;;;;;10.30;97771.00;;;;5014066;28;20046;-59
2023/03/25 07:11:50;;;;;;;8.88;2.60;;;;;10.50;97759.00;;;;5015088;28;20038;-60
2023/03/25 07:14:17;;;;;;;16.67;2.88;;;;;10.70;97781.00;;;;5015303;28;20050;-60
2023/03/25 07:16:43;;;;;;;10.82;2.95;;;;;10.80;97758.00;;;;5014744;28;20041;-59
2023/03/25 07:19:10;;;;;;;7.60;1.85;;;;;10.90;97770.00;;;;5013968;28;20039;-60
2023/03/25 07:21:37;;;;;;;11.07;3.50;;;;;11.00;97761.00;;;;5012743;28;20525;-60
2023/03/25 07:24:03;;;;;;;16.77;2.50;;;;;11.00;97774.00;;;;5014194;28;20049;-59
2023/03/25 07:26:30;;;;;;;13.02;2.67;;;;;11.10;97779.00;;;;5014251;28;20410;-60
2023/03/25 07:28:56;;;;;;;7.97;2.17;;;;;11.10;97785.00;;;;5013521;28;20481;-59
2023/03/25 07:31:23;;;;;;;11.98;2.35;;;;;11.10;97769.00;;;;5013987;28;20089;-59
2023/03/25 07:33:50;;;;;;;6.13;1.85;;;;;11.30;97761.00;;;;5012864;28;20050;-60
2023/03/25 07:36:17;;;;;;;10.45;2.38;;;;;11.20;97775.00;;;;5013937;28;20137;-60
2023/03/25 07:38:43;;;;;;;11.88;2.60;;;;;11.30;97761.00;;;;5013419;28;20049;-59
2023/03/25 07:41:11;;;;;;;11.38;2.25;;;;;11.30;97772.00;;;;5012548;28;20053;-59
2023/03/25 07:43:46;;;;;;;9.07;2.53;;;;;11.30;97784.00;;;;5012746;28;20133;-59
2023/03/25 07:46:31;;;;;;;12.73;3.40;;;;;11.30;97761.00;;;;5012578;28;20060;-60
2023/03/25 07:48:57;;;;;;;10.32;3.28;;;;;11.40;97768.00;;;;5013117;28;20077;-59
2023/03/25 07:51:24;;;;;;;9.40;2.60;;;;;11.60;97772.00;;;;5013252;28;20046;-59
2023/03/25 07:53:51;;;;;;;10.02;2.22;;;;;11.80;97778.00;;;;5012773;28;20407;-60
2023/03/25 07:56:17;;;;;;;10.40;2.45;;;;;11.70;97790.00;;;;5013683;28;20052;-59
2023/03/25 07:58:45;;;;;;;9.48;2.33;;;;;11.60;97780.00;;;;5011642;28;20399;-60
2023/03/25 08:01:11;;;;;;;5.18;1.77;;;;;11.40;97783.00;;;;5012331;28;20049;-56
2023/03/25 08:03:38;;;;;;;4.93;1.55;;;;;11.40;97784.00;;;;5013655;28;20046;-57
2023/03/25 08:06:06;;;;;;;8.38;2.08;;;;;11.40;97785.00;;;;5012406;28;20132;-56
2023/03/25 08:08:33;;;;;;;7.07;1.73;;;;;11.40;97779.00;;;;5012932;28;20064;-58
2023/03/25 08:11:00;;;;;;;5.47;1.63;;;;;11.60;97797.00;;;;5013403;28;20499;-57
2023/03/25 08:13:27;;;;;;;6.43;1.63;;;;;11.70;97782.00;;;;5013408;28;20042;-59
2023/03/25 08:15:54;;;;;;;7.47;1.98;;;;;11.90;97800.00;;;;5017440;28;20072;-56
2023/03/25 08:18:20;;;;;;;8.23;2.05;;;;;12.00;97796.00;;;;5016785;28;20045;-58
2023/03/25 08:20:49;;;;;;;5.40;1.65;;;;;12.10;97785.00;;;;5014684;28;20046;-63
2023/03/25 08:23:18;;;;;;;6.10;1.45;;;;;12.00;97792.00;;;;5014931;28;20050;-61
2023/03/25 08:25:50;;;;;;;5.70;1.48;;;;;12.00;97801.00;;;;5015035;28;20042;-59
2023/03/25 08:28:22;;;;;;;2.65;1.15;;;;;12.00;97802.00;;;;5016385;28;20084;-61
2023/03/25 08:30:55;;;;;;;6.70;1.83;;;;;12.10;97802.00;;;;5020235;28;20050;-59
2023/03/25 08:33:26;;;;;;;6.43;1.47;;;;;12.10;97805.00;;;;5018395;28;20103;-61
2023/03/25 08:35:56;;;;;;;6.00;1.10;;;;;12.00;97802.00;;;;5018822;28;20110;-60
2023/03/25 08:38:24;;;;;;;3.03;1.20;;;;;11.90;97796.00;;;;5019840;28;20046;-60
2023/03/25 08:40:50;;;;;;;6.22;1.50;;;;;11.90;97797.00;;;;5019137;28;20505;-60
2023/03/25 08:43:17;;;;;;;6.03;1.17;;;;;11.90;97806.00;;;;5019642;28;20053;-62
2023/03/25 08:45:43;;;;;;;4.32;1.50;;;;;11.90;97811.00;;;;5021237;28;20041;-60
2023/03/25 08:48:10;;;;;;;7.57;2.05;;;;;12.00;97806.00;;;;5034085;28;20107;-60
2023/03/25 08:50:37;;;;;;;5.57;2.08;;;;;12.00;97804.00;;;;5019401;28;20057;-60
2023/03/25 08:53:04;;;;;;;5.57;1.45;;;;;12.00;97798.00;;;;5020066;28;20050;-59
2023/03/25 08:55:31;;;;;;;5.68;1.30;;;;;11.90;97801.00;;;;5019946;28;20042;-60
2023/03/25 08:58:02;;;;;;;3.97;1.10;;;;;12.00;97803.00;;;;5020636;28;20117;-59
2023/03/25 09:00:29;;;;;;;2.97;1.20;;;;;12.00;97777.00;;;;5017753;28;20077;-59
2023/03/25 09:02:57;;;;;;;8.35;1.65;;;;;12.00;97779.00;;;;5018000;28;20046;-61
2023/03/25 09:05:25;;;;;;;6.47;1.80;;;;;12.20;97782.00;;;;5020515;28;20077;-60
2023/03/25 09:07:52;;;;;;;5.43;1.70;;;;;12.40;97785.00;;;;5019784;28;20038;-62
2023/03/25 09:10:18;;;;;;;5.55;1.38;;;;;12.60;97788.00;;;;5020418;28;20056;-61
2023/03/25 09:12:45;;;;;;;3.28;1.33;;;;;12.70;97798.00;;;;5020341;28;20080;-62
2023/03/25 09:15:11;;;;;;;7.53;1.63;;;;;12.70;97791.00;;;;5019836;28;20042;-62
2023/03/25 09:17:38;;;;;;;4.05;1.40;;;;;12.70;97786.00;;;;5020507;28;20077;-61
2023/03/25 09:20:09;;;;;;;6.30;1.42;;;;;12.70;97807.00;;;;5018361;28;20042;-62
2023/03/25 09:22:38;;;;;;;8.10;1.60;;;;;12.40;97796.00;;;;5020027;28;20046;-61
2023/03/25 09:25:05;;;;;;;3.70;1.10;;;;;12.30;97794.00;;;;5015189;28;20052;-62
2023/03/25 09:27:33;;;;;;;8.65;1.70;;;;;12.30;97826.00;;;;5015493;28;20096;-61
2023/03/25 09:30:00;;;;;;;7.40;1.75;;;;;12.00;97816.00;;;;5015847;28;20097;-61
2023/03/25 09:32:26;;;;;;;5.63;1.33;;;;;12.00;97826.00;;;;5014967;28;20054;-61
2023/03/25 09:34:53;;;;;;;5.68;1.35;;;;;11.80;97824.00;;;;5016182;28;20240;-64
2023/03/25 09:37:19;;;;;;;4.70;1.50;;;;;11.70;97814.00;;;;5016031;28;20442;-61
2023/03/25 09:39:46;;;;;;;4.78;1.50;;;;;11.70;97811.00;;;;5013017;28;20048;-62
2023/03/25 09:42:28;;;;;;;3.25;1.40;;;;;11.70;97812.00;;;;5015287;28;20050;-62
2023/03/25 09:44:58;;;;;;;8.80;1.92;;;;;11.80;97798.00;;;;5015620;28;20054;-62
2023/03/25 09:47:35;;;;;;;6.22;1.40;;;;;12.10;97808.00;;;;5014456;28;20112;-58
2023/03/25 09:50:08;;;;;;;4.38;1.50;;;;;12.30;97791.00;;;;5011456;28;20046;-61
2023/03/25 09:52:51;;;;;;;5.53;1.80;;;;;12.40;97786.00;;;;5012321;28;20049;-59
2023/03/25 09:55:24;;;;;;;3.45;1.45;;;;;12.60;97775.00;;;;5011055;28;20529;-63
2023/03/25 09:57:57;;;;;;;7.78;1.77;;;;;13.00;97777.00;;;;5011964;28;20046;-59
2023/03/25 10:00:25;;;;;;;7.28;3.15;;;;;13.10;97794.00;;;;5010049;28;20562;-62
2023/03/25 10:02:54;;;;;;;3.28;1.10;;;;;13.10;97802.00;;;;5011982;28;20054;-58
2023/03/25 10:05:55;;;;;;;5.72;1.60;;;;;13.00;97834.00;;;;5012338;28;20042;-59
2023/03/25 10:08:37;;;;;;;3.83;1.40;;;;;12.50;97824.00;;;;5002563;28;20072;-63
2023/03/25 10:11:14;;;;;;;2.97;1.48;;;;;12.00;97828.00;;;;5012058;28;20077;-58
2023/03/25 10:14:18;;;;;;;5.03;1.58;;;;;11.50;97837.00;;;;5011769;28;20498;-56
2023/03/25 10:17:12;;;;;;;5.57;1.80;;;;;11.10;97844.00;;;;5014242;28;20042;-58
2023/03/25 10:19:57;;;;;;;4.30;1.50;;;;;10.90;97864.00;;;;5013640;28;20042;-59
2023/03/25 10:22:49;;;;;;;4.03;1.40;;;;;10.60;97867.00;;;;5015585;28;20052;-57
2023/03/25 10:25:23;;;;;;;7.68;1.70;;;;;10.20;97856.00;;;;5007528;28;20096;-57
2023/03/25 10:27:51;;;;;;;4.93;1.33;;;;;10.00;97853.00;;;;5016166;28;20052;-57
2023/03/25 10:30:23;;;;;;;2.85;1.35;;;;;10.00;97847.00;;;;5016606;28;20052;-61
2023/03/25 10:33:01;;;;;;;3.88;0.85;;;;;10.00;97854.00;;;;5016049;28;20101;-57
2023/03/25 10:35:36;;;;;;;2.45;1.30;;;;;10.20;97864.00;;;;5015904;28;20433;-58
2023/03/25 10:38:17;;;;;;;4.53;1.23;;;;;10.30;97859.00;;;;5015246;28;20402;-59
2023/03/25 10:40:48;;;;;;;3.03;1.00;;;;;10.20;97859.00;;;;5014652;28;20072;-57
2023/03/25 10:43:30;;;;;;;1.58;0.88;;;;;10.40;97875.00;;;;5014116;28;20046;-59
2023/03/25 10:46:19;;;;;;;1.33;0.73;;;;;10.60;97883.00;;;;5013755;28;20050;-61
2023/03/25 10:48:47;;;;;;;1.77;0.70;;;;;10.70;97874.00;;;;5014456;28;20053;-58
2023/03/25 10:51:34;;;;;;;3.92;1.35;;;;;10.70;97880.00;;;;5015216;28;20406;-58
2023/03/25 10:54:01;;;;;;;1.45;0.70;;;;;10.80;97877.00;;;;5014978;28;20042;-57
2023/03/25 10:56:34;;;;;;;2.92;1.20;;;;;10.90;97885.00;;;;5030750;28;20343;-61
2023/03/25 10:59:09;;;;;;;3.15;1.05;;;;;10.90;97899.00;;;;5013277;28;20458;-57
2023/03/25 11:01:39;;;;;;;7.50;1.30;;;;;10.80;97902.00;;;;5013436;28;20499;-60
2023/03/25 11:04:09;;;;;;;2.15;0.88;;;;;10.90;97893.00;;;;5013459;28;20077;-59
2023/03/25 11:06:41;;;;;;;3.72;0.98;;;;;10.80;97888.00;;;;5013338;28;20334;-57
2023/03/25 11:09:29;;;;;;;4.90;1.40;;;;;10.80;97893.00;;;;5014141;28;20474;-58
2023/03/25 11:11:59;;;;;;;3.42;1.38;;;;;10.70;97883.00;;;;5014703;28;20046;-58
2023/03/25 11:14:28;;;;;;;4.20;1.00;;;;;10.90;97890.00;;;;5013466;28;20470;-62
2023/03/25 11:16:59;;;;;;;6.45;1.05;;;;;11.10;97903.00;;;;5014278;28;20124;-58
2023/03/25 11:19:39;;;;;;;3.40;1.52;;;;;11.20;97890.00;;;;5012550;28;20049;-62
2023/03/25 11:22:17;;;;;;;3.58;1.05;;;;;11.30;97891.00;;;;5014633;28;20406;-56
2023/03/25 11:24:49;;;;;;;2.40;1.30;;;;;11.50;97912.00;;;;5015019;28;20120;-56
2023/03/25 11:27:20;;;;;;;4.68;1.00;;;;;11.60;97889.00;;;;5013721;28;20073;-60
2023/03/25 11:29:53;;;;;;;3.95;1.30;;;;;11.70;97891.00;;;;5014001;28;20079;-59
2023/03/25 11:32:32;;;;;;;3.72;1.20;;;;;11.90;97883.00;;;;5014566;28;20100;-57
2023/03/25 11:35:06;;;;;;;4.32;1.80;;;;;12.20;97877.00;;;;5013771;28;20073;-59
2023/03/25 11:37:43;;;;;;;4.20;1.05;;;;;12.40;97877.00;;;;5014703;28;20042;-57
2023/03/25 11:40:15;;;;;;;4.63;1.30;;;;;12.80;97873.00;;;;5014327;28;20387;-59
2023/03/25 11:42:48;;;;;;;4.45;0.95;;;;;13.10;97873.00;;;;5014010;28;20053;-59
2023/03/25 11:45:25;;;;;;;5.70;1.30;;;;;13.30;97883.00;;;;5012833;28;20470;-60
2023/03/25 11:48:01;;;;;;;3.78;1.23;;;;;13.40;97880.00;;;;5012874;28;20434;-58
2023/03/25 11:50:29;;;;;;;2.67;1.33;;;;;13.40;97891.00;;;;5013441;28;20152;-59
2023/03/25 11:52:58;;;;;;;2.75;1.33;;;;;13.50;97873.00;;;;5014137;28;20050;-59
2023/03/25 11:55:28;;;;;;;5.07;1.23;;;;;13.50;97871.00;;;;5014295;28;20048;-58
2023/03/25 11:57:58;;;;;;;4.03;1.30;;;;;13.60;97864.00;;;;5013844;28;20073;-57
2023/03/25 12:00:25;;;;;;;3.20;1.00;;;;;13.90;97860.00;;;;5012124;28;20088;-59
2023/03/25 12:02:58;;;;;;;2.95;0.70;;;;;14.40;97862.00;;;;5015009;28;20050;-62
2023/03/25 12:05:25;;;;;;;1.70;0.73;;;;;14.50;97874.00;;;;5014275;28;20046;-62
2023/03/25 12:08:02;;;;;;;3.13;1.23;;;;;14.90;97856.00;;;;5030100;28;20045;-59
2023/03/25 12:10:40;;;;;;;3.53;0.90;;;;;15.00;97883.00;;;;5014757;28;20050;-57
2023/03/25 12:13:29;;;;;;;3.05;0.80;;;;;14.50;97892.00;;;;5014883;28;20056;-57
2023/03/25 12:16:12;;;;;;;3.80;1.00;;;;;14.10;97910.00;;;;5014865;28;20046;-59
2023/03/25 12:18:58;;;;;;;2.42;1.27;;;;;13.70;97882.00;;;;5014268;28;20491;-58
2023/03/25 12:21:40;;;;;;;3.35;1.40;;;;;13.50;97877.00;;;;5014726;28;20042;-59
2023/03/25 12:24:09;;;;;;;4.13;1.30;;;;;13.60;97868.00;;;;5013358;28;20045;-58
2023/03/25 12:26:50;;;;;;;4.78;1.42;;;;;13.70;97866.00;;;;5012219;28;20561;-60
2023/03/25 12:29:52;;;;;;;3.63;1.58;;;;;13.60;97871.00;;;;5011489;28;20060;-61
2023/03/25 12:32:35;;;;;;;5.30;1.85;;;;;13.50;97874.00;;;;5013255;28;20149;-59
2023/03/25 12:35:29;;;;;;;5.17;1.57;;;;;13.60;97872.00;;;;5013471;28;20495;-61
2023/03/25 12:38:07;;;;;;;2.55;0.90;;;;;13.50;97873.00;;;;5011608;28;20052;-60
2023/03/25 12:40:57;;;;;;;6.00;1.50;;;;;13.40;97869.00;;;;5014498;28;20049;-61
2023/03/25 12:43:51;;;;;;;3.88;1.02;;;;;13.40;97867.00;;;;5015520;28;20042;-62
2023/03/25 12:46:23;;;;;;;2.00;1.00;;;;;13.50;97863.00;;;;5015270;28;20049;-62